Time;durP1;ratioP1;P1;durP2;ratioP2;P2;SDS_P1;SDS_P2;PMS_P1;PMS_P2;Temp;Humidity;BMP_temperature;BMP_pressure;BME280_temperature;BME280_humidity;BME280_pressure;Samples;Min_cycle;Max_cycle;Signal;HPM_P1;HPM_P2
2021/07/12 00:00:25;;;;;;;;;;;13.50;99.90;;;;;;4994584;28;20090;-62
2021/07/12 00:03:14;;;;;;;;;;;13.50;99.90;;;;;;5017462;28;20020;-63
2021/07/12 00:06:08;;;;;;;;;;;13.50;99.90;;;;;;5024843;28;20226;-64
2021/07/12 00:08:57;;;;;;;;;;;13.50;99.90;;;;;;5027948;28;20360;-63
2021/07/12 00:11:46;;;;;;;;;;;13.40;99.90;;;;;;5013996;28;19925;-63
2021/07/12 00:14:35;;;;;;;;;;;13.40;99.90;;;;;;5022885;28;19929;-63
2021/07/12 00:17:23;;;;;;;;;;;13.40;99.90;;;;;;5016083;28;19985;-63
2021/07/12 00:20:13;;;;;;;;;;;13.40;99.90;;;;;;5020152;28;19956;-63
2021/07/12 00:23:03;;;;;;;;;;;13.30;99.90;;;;;;5009893;28;19932;-63
2021/07/12 00:25:52;;;;;;;;;;;13.30;99.90;;;;;;5020159;28;19936;-63
2021/07/12 00:28:41;;;;;;;;;;;13.40;99.90;;;;;;5024744;28;19925;-63
2021/07/12 00:31:29;;;;;;;;;;;13.40;99.90;;;;;;5025451;28;20026;-63
2021/07/12 00:34:19;;;;;;;;;;;13.40;99.90;;;;;;5024701;28;19925;-63
2021/07/12 00:37:08;;;;;;;;;;;13.40;99.90;;;;;;5026962;28;19926;-63
2021/07/12 00:39:58;;;;;;;;;;;13.30;99.90;;;;;;5013823;28;20296;-63
2021/07/12 00:42:47;;;;;;;;;;;13.20;99.90;;;;;;5042247;28;20007;-63
2021/07/12 00:45:37;;;;;;;;;;;13.10;99.90;;;;;;5026620;28;20269;-63
2021/07/12 00:48:26;;;;;;;;;;;13.10;99.90;;;;;;5028993;28;19926;-63
2021/07/12 00:51:18;;;;;;;;;;;13.10;99.90;;;;;;5024629;28;20297;-63
2021/07/12 00:54:12;;;;;;;;;;;13.20;99.90;;;;;;5029610;28;19932;-62
2021/07/12 00:57:05;;;;;;;;;;;13.20;99.90;;;;;;5042630;28;19929;-64
2021/07/12 00:59:55;;;;;;;;;;;13.00;99.90;;;;;;5012514;28;19937;-63
2021/07/12 01:02:44;;;;;;;;;;;13.10;99.90;;;;;;5028690;28;19929;-64
2021/07/12 01:05:35;;;;;;;;;;;13.20;99.90;;;;;;5016139;28;19925;-63
2021/07/12 01:08:25;;;;;;;;;;;13.10;99.90;;;;;;5042473;28;19925;-63
2021/07/12 01:11:27;;;;;;;;;;;13.00;99.90;;;;;;5023447;28;19963;-63
2021/07/12 01:14:27;;;;;;;;;;;12.90;99.90;;;;;;5028404;28;19968;-65
2021/07/12 01:17:40;;;;;;;;;;;13.00;99.90;;;;;;5013799;28;20063;-63
2021/07/12 01:20:44;;;;;;;;;;;12.90;99.90;;;;;;5016591;28;19937;-63
2021/07/12 01:23:51;;;;;;;;;;;12.80;99.90;;;;;;5027098;28;19949;-63
2021/07/12 01:27:04;;;;;;;;;;;12.70;99.90;;;;;;5020011;28;19925;-63
2021/07/12 01:30:05;;;;;;;;;;;12.80;99.90;;;;;;5029112;28;19972;-63
2021/07/12 01:33:02;;;;;;;;;;;12.80;99.90;;;;;;5042949;28;19932;-63
2021/07/12 01:35:58;;;;;;;;;;;12.70;99.90;;;;;;5032244;28;19925;-63
2021/07/12 01:38:49;;;;;;;;;;;12.70;99.90;;;;;;5031317;28;20023;-63
2021/07/12 01:41:43;;;;;;;;;;;12.70;99.90;;;;;;5030144;28;19932;-62
2021/07/12 01:44:37;;;;;;;;;;;12.70;99.90;;;;;;5033109;28;19944;-63
2021/07/12 01:47:31;;;;;;;;;;;12.60;99.90;;;;;;5027101;28;19925;-63
2021/07/12 01:50:24;;;;;;;;;;;12.60;99.90;;;;;;5043101;28;20336;-63
2021/07/12 01:53:19;;;;;;;;;;;12.50;99.90;;;;;;5052164;28;19963;-63
2021/07/12 01:56:36;;;;;;;;;;;12.50;99.90;;;;;;5028909;28;20003;-65
2021/07/12 01:59:31;;;;;;;;;;;12.50;99.90;;;;;;5029852;28;20018;-64
2021/07/12 02:02:25;;;;;;;;;;;12.50;99.90;;;;;;5023764;28;19925;-64
2021/07/12 02:05:22;;;;;;;;;;;12.50;99.90;;;;;;5025921;28;19956;-64
2021/07/12 02:08:13;;;;;;;;;;;12.60;99.90;;;;;;5054594;28;19940;-64
2021/07/12 02:14:24;;;;;;;;;;;12.60;99.90;;;;;;5044190;28;19932;-64
2021/07/12 02:17:15;;;;;;;;;;;12.50;99.90;;;;;;5026313;28;19929;-63
2021/07/12 02:20:07;;;;;;;;;;;12.40;99.90;;;;;;5035178;28;19929;-64
2021/07/12 02:22:56;;;;;;;;;;;12.40;99.90;;;;;;5034574;28;19976;-64
2021/07/12 02:25:50;;;;;;;;;;;12.30;99.90;;;;;;5054182;28;19925;-64
2021/07/12 02:28:42;;;;;;;;;;;12.30;99.90;;;;;;5032742;28;20041;-63
2021/07/12 02:31:31;;;;;;;;;;;12.30;99.90;;;;;;5032753;28;19932;-65
2021/07/12 02:34:22;;;;;;;;;;;12.30;99.90;;;;;;5049590;28;19913;-63
2021/07/12 02:37:15;;;;;;;;;;;12.30;99.90;;;;;;5034173;28;19932;-65
2021/07/12 02:40:05;;;;;;;;;;;12.20;99.90;;;;;;5034503;28;19925;-64
2021/07/12 02:42:58;;;;;;;;;;;12.20;99.90;;;;;;5033485;28;20296;-63
2021/07/12 02:45:49;;;;;;;;;;;12.20;99.90;;;;;;5020974;28;19929;-63
2021/07/12 02:48:44;;;;;;;;;;;12.20;99.90;;;;;;5035463;28;19931;-64
2021/07/12 02:51:36;;;;;;;;;;;12.20;99.90;;;;;;5033048;28;19932;-64
2021/07/12 02:54:27;;;;;;;;;;;12.10;99.90;;;;;;5043695;28;20025;-63
2021/07/12 02:57:16;;;;;;;;;;;12.10;99.90;;;;;;5035497;28;19933;-64
2021/07/12 03:00:14;;;;;;;;;;;12.20;99.90;;;;;;5026991;28;20249;-64
2021/07/12 03:03:03;;;;;;;;;;;12.20;99.90;;;;;;5048032;28;20325;-64
2021/07/12 03:05:54;;;;;;;;;;;12.20;99.90;;;;;;5055176;28;19928;-64
2021/07/12 03:08:47;;;;;;;;;;;12.20;99.90;;;;;;5039501;28;19936;-64
2021/07/12 03:11:38;;;;;;;;;;;12.20;99.90;;;;;;5053504;28;19936;-64
2021/07/12 03:14:30;;;;;;;;;;;12.10;99.90;;;;;;5037381;28;19944;-63
2021/07/12 03:17:22;;;;;;;;;;;12.20;99.90;;;;;;5031504;28;19925;-63
2021/07/12 03:20:11;;;;;;;;;;;12.20;99.90;;;;;;5033901;28;19931;-66
2021/07/12 03:23:02;;;;;;;;;;;12.10;99.90;;;;;;5045333;28;19925;-64
2021/07/12 03:25:52;;;;;;;;;;;12.00;99.90;;;;;;5034364;28;19925;-63
2021/07/12 03:28:41;;;;;;;;;;;11.90;99.90;;;;;;5026781;28;19947;-64
2021/07/12 03:31:30;;;;;;;;;;;12.00;99.90;;;;;;5015774;28;20063;-63
2021/07/12 03:34:21;;;;;;;;;;;11.90;99.90;;;;;;5030450;28;19925;-63
2021/07/12 03:37:11;;;;;;;;;;;11.90;99.90;;;;;;5031203;28;20020;-64
2021/07/12 03:40:00;;;;;;;;;;;11.90;99.90;;;;;;5028087;28;19935;-64
2021/07/12 03:42:51;;;;;;;;;;;11.90;99.90;;;;;;5031176;28;19931;-63
2021/07/12 03:45:41;;;;;;;;;;;12.00;99.90;;;;;;5026400;28;19925;-62
2021/07/12 03:48:39;;;;;;;;;;;12.10;99.90;;;;;;5044327;28;19925;-63
2021/07/12 03:51:31;;;;;;;;;;;12.20;99.90;;;;;;5007971;28;19929;-64
2021/07/12 03:54:25;;;;;;;;;;;12.20;99.90;;;;;;5031552;28;19929;-63
2021/07/12 03:57:14;;;;;;;;;;;12.10;99.90;;;;;;5030720;28;19951;-63
2021/07/12 04:00:28;;;;;;;;;;;12.00;99.90;;;;;;5026804;28;19932;-64
2021/07/12 04:03:17;;;;;;;;;;;12.10;99.90;;;;;;5051855;28;19925;-64
2021/07/12 04:06:07;;;;;;;;;;;12.20;99.90;;;;;;5052160;28;20353;-63
2021/07/12 04:08:57;;;;;;;;;;;12.30;99.90;;;;;;5050869;28;20265;-64
2021/07/12 04:11:49;;;;;;;;;;;12.20;99.90;;;;;;5050544;28;20304;-63
2021/07/12 04:14:37;;;;;;;;;;;12.30;99.90;;;;;;5051514;28;19924;-64
2021/07/12 04:17:26;;;;;;;;;;;12.30;99.90;;;;;;5026913;28;20063;-64
2021/07/12 04:20:15;;;;;;;;;;;12.40;99.90;;;;;;5030995;28;20003;-63
2021/07/12 04:23:28;;;;;;;;;;;12.40;99.90;;;;;;5036088;28;20384;-62
2021/07/12 04:26:18;;;;;;;;;;;12.50;99.90;;;;;;5029534;28;20337;-64
2021/07/12 04:29:07;;;;;;;;;;;12.50;99.90;;;;;;5029931;28;19925;-63
2021/07/12 04:31:56;;;;;;;;;;;12.60;99.90;;;;;;5024674;28;20027;-63
2021/07/12 04:34:45;;;;;;;;;;;12.60;99.90;;;;;;5044445;28;19932;-63
2021/07/12 04:37:33;;;;;;;;;;;12.70;99.90;;;;;;5049082;28;19948;-64
2021/07/12 04:40:22;;;;;;;;;;;12.70;99.90;;;;;;5053860;28;19929;-63
2021/07/12 04:43:12;;;;;;;;;;;12.80;99.90;;;;;;5054244;28;19932;-63
2021/07/12 04:46:02;;;;;;;;;;;12.90;99.90;;;;;;5044539;28;19925;-64
2021/07/12 04:48:53;;;;;;;;;;;13.00;99.90;;;;;;5044667;28;19936;-63
2021/07/12 04:52:06;;;;;;;;;;;13.10;99.90;;;;;;5036716;28;19929;-63
2021/07/12 04:54:54;;;;;;;;;;;13.20;99.90;;;;;;5042631;28;19924;-64
2021/07/12 04:57:42;;;;;;;;;;;13.20;99.90;;;;;;5044476;28;19925;-63
2021/07/12 05:00:33;;;;;;;;;;;13.40;99.90;;;;;;5027997;28;20059;-63
2021/07/12 05:03:26;;;;;;;;;;;13.50;99.90;;;;;;5040518;28;19929;-63
2021/07/12 05:06:14;;;;;;;;;;;13.60;99.90;;;;;;5050619;28;19932;-64
2021/07/12 05:09:06;;;;;;;;;;;13.70;99.90;;;;;;5048288;28;19924;-64
2021/07/12 05:11:54;;;;;;;;;;;13.80;99.90;;;;;;5049620;28;19925;-64
2021/07/12 05:14:43;;;;;;;;;;;13.90;99.90;;;;;;5044191;28;19967;-64
2021/07/12 05:17:33;;;;;;;;;;;14.00;99.90;;;;;;5030446;28;19933;-64
2021/07/12 05:20:27;;;;;;;;;;;14.20;99.90;;;;;;5030292;28;19936;-64
2021/07/12 05:23:16;;;;;;;;;;;14.40;99.90;;;;;;5031652;28;20023;-64
2021/07/12 05:26:05;;;;;;;;;;;14.40;99.90;;;;;;5029775;28;19947;-64
2021/07/12 05:28:54;;;;;;;;;;;14.60;99.90;;;;;;5040537;28;19924;-64
2021/07/12 05:31:43;;;;;;;;;;;14.60;99.90;;;;;;5040076;28;19925;-64
2021/07/12 05:34:33;;;;;;;;;;;14.70;99.90;;;;;;5069154;28;19952;-64
2021/07/12 05:37:22;;;;;;;;;;;14.70;99.90;;;;;;5037337;28;20332;-64
2021/07/12 05:40:11;;;;;;;;;;;14.80;99.90;;;;;;5048846;28;20007;-64
2021/07/12 05:43:00;;;;;;;;;;;14.90;99.90;;;;;;5048936;28;19925;-63
2021/07/12 05:46:12;;;;;;;;;;;15.20;99.90;;;;;;5032583;28;20354;-63
2021/07/12 05:49:01;;;;;;;;;;;15.30;99.90;;;;;;5034700;28;20367;-64
2021/07/12 05:51:51;;;;;;;;;;;15.30;99.90;;;;;;5033559;28;20280;-64
2021/07/12 05:54:41;;;;;;;;;;;15.40;99.90;;;;;;5035063;28;19929;-64
2021/07/12 05:57:30;;;;;;;;;;;15.30;99.90;;;;;;5024724;28;19932;-65
2021/07/12 06:00:19;;;;;;;;;;;15.40;99.90;;;;;;5027946;28;20391;-64
2021/07/12 06:03:08;;;;;;;;;;;15.80;99.90;;;;;;5036940;28;19929;-65
2021/07/12 06:05:56;;;;;;;;;;;15.70;99.90;;;;;;5055475;28;20276;-65
2021/07/12 06:08:46;;;;;;;;;;;15.80;99.90;;;;;;5047892;28;20356;-65
2021/07/12 06:11:37;;;;;;;;;;;16.00;99.90;;;;;;5044009;28;19964;-65
2021/07/12 06:14:25;;;;;;;;;;;16.20;99.90;;;;;;5054141;28;19932;-64
2021/07/12 06:17:14;;;;;;;;;;;16.20;99.90;;;;;;5036688;28;19937;-65
2021/07/12 06:20:03;;;;;;;;;;;16.30;99.90;;;;;;5044161;28;20015;-66
2021/07/12 06:22:51;;;;;;;;;;;16.40;99.90;;;;;;5052627;28;19943;-65
2021/07/12 06:25:45;;;;;;;;;;;16.80;99.90;;;;;;5055284;28;19925;-65
2021/07/12 06:28:34;;;;;;;;;;;16.80;99.90;;;;;;5051011;28;20423;-65
2021/07/12 06:31:22;;;;;;;;;;;17.20;99.90;;;;;;5048473;28;19928;-63
2021/07/12 06:34:12;;;;;;;;;;;17.30;99.90;;;;;;5019359;28;20357;-64
2021/07/12 06:37:00;;;;;;;;;;;17.20;99.90;;;;;;5026271;28;20011;-64
2021/07/12 06:39:49;;;;;;;;;;;17.20;99.90;;;;;;5019589;28;19929;-64
2021/07/12 06:42:39;;;;;;;;;;;17.30;99.90;;;;;;5034685;28;19933;-64
2021/07/12 06:45:28;;;;;;;;;;;17.60;99.90;;;;;;5026817;28;19932;-63
2021/07/12 06:48:17;;;;;;;;;;;18.40;99.90;;;;;;5036603;28;20004;-66
2021/07/12 06:51:14;;;;;;;;;;;18.40;99.90;;;;;;5026593;28;19941;-63
2021/07/12 06:57:15;;;;;;;;;;;18.40;99.90;;;;;;5042456;28;19929;-63
2021/07/12 07:00:31;;;;;;;;;;;18.70;99.90;;;;;;5034824;28;20012;-64
2021/07/12 07:03:22;;;;;;;;;;;18.70;99.90;;;;;;5033704;28;19925;-65
2021/07/12 07:06:11;;;;;;;;;;;18.80;99.90;;;;;;5033672;28;20381;-64
2021/07/12 07:09:00;;;;;;;;;;;18.80;99.90;;;;;;5033557;28;19925;-64
2021/07/12 07:11:49;;;;;;;;;;;19.20;99.90;;;;;;5034089;28;19929;-64
2021/07/12 07:14:37;;;;;;;;;;;19.10;99.90;;;;;;5033250;28;20384;-64
2021/07/12 07:17:26;;;;;;;;;;;19.60;99.90;;;;;;5028395;28;19925;-63
2021/07/12 07:20:17;;;;;;;;;;;20.10;99.90;;;;;;5034060;28;19947;-64
2021/07/12 07:23:29;;;;;;;;;;;21.10;99.90;;;;;;5032373;28;19978;-64
2021/07/12 07:26:18;;;;;;;;;;;20.90;99.90;;;;;;5033669;28;20463;-67
2021/07/12 07:29:06;;;;;;;;;;;22.50;99.90;;;;;;5033938;28;20270;-65
2021/07/12 07:31:55;;;;;;;;;;;21.20;99.90;;;;;;5032196;28;20305;-64
2021/07/12 07:34:59;;;;;;;;;;;22.00;99.90;;;;;;5033630;28;19926;-64
2021/07/12 07:37:48;;;;;;;;;;;22.30;99.90;;;;;;5038754;28;20395;-64
2021/07/12 07:40:37;;;;;;;;;;;23.00;99.90;;;;;;5034266;28;19929;-64
2021/07/12 07:43:26;;;;;;;;;;;23.50;99.90;;;;;;5033854;28;19925;-65
2021/07/12 07:46:14;;;;;;;;;;;23.70;99.90;;;;;;5024830;28;19948;-65
2021/07/12 07:49:07;;;;;;;;;;;24.50;99.90;;;;;;5027466;28;19968;-65
2021/07/12 07:51:55;;;;;;;;;;;26.00;99.90;;;;;;5041237;28;19959;-67
2021/07/12 07:54:45;;;;;;;;;;;27.60;99.90;;;;;;5049627;28;19956;-67
2021/07/12 07:57:34;;;;;;;;;;;28.20;96.50;;;;;;5049823;28;19925;-65
2021/07/12 08:00:23;;;;;;;;;;;26.70;96.80;;;;;;5037868;28;19941;-67
2021/07/12 08:03:12;;;;;;;;;;;26.90;97.70;;;;;;5045085;28;19932;-65
2021/07/12 08:06:01;;;;;;;;;;;27.00;96.50;;;;;;5046804;28;20331;-65
2021/07/12 08:08:49;;;;;;;;;;;27.50;96.40;;;;;;5045932;28;19929;-65
2021/07/12 08:11:40;;;;;;;;;;;26.10;96.70;;;;;;5035150;28;20377;-64
2021/07/12 08:14:29;;;;;;;;;;;28.80;96.40;;;;;;5031754;28;20008;-65
2021/07/12 08:17:17;;;;;;;;;;;29.50;92.00;;;;;;5043900;28;19929;-65
2021/07/12 08:20:07;;;;;;;;;;;27.20;94.00;;;;;;5052519;28;20345;-65
2021/07/12 08:23:32;;;;;;;;;;;27.40;96.50;;;;;;5050848;28;19933;-65
2021/07/12 08:26:21;;;;;;;;;;;27.40;94.50;;;;;;5053106;28;20065;-64
2021/07/12 08:29:11;;;;;;;;;;;26.40;96.20;;;;;;5049097;28;19925;-65
2021/07/12 08:32:24;;;;;;;;;;;28.80;95.40;;;;;;5034441;28;19925;-66
2021/07/12 08:35:14;;;;;;;;;;;29.00;94.30;;;;;;5036669;28;20032;-66
2021/07/12 08:38:04;;;;;;;;;;;28.00;93.90;;;;;;5039794;28;20385;-65
2021/07/12 08:40:55;;;;;;;;;;;26.10;96.20;;;;;;5033247;28;20336;-64
2021/07/12 08:43:44;;;;;;;;;;;27.20;97.00;;;;;;5040844;28;19926;-65
2021/07/12 08:46:41;;;;;;;;;;;27.90;94.40;;;;;;5030255;28;19979;-65
2021/07/12 08:49:30;;;;;;;;;;;29.20;93.70;;;;;;5030816;28;20126;-65
2021/07/12 08:52:18;;;;;;;;;;;27.20;94.30;;;;;;5033165;28;19925;-65
2021/07/12 08:55:08;;;;;;;;;;;27.10;95.60;;;;;;5029304;28;19933;-67
2021/07/12 08:58:03;;;;;;;;;;;27.10;94.60;;;;;;5025412;28;19925;-63
2021/07/12 09:01:00;;;;;;;;;;;25.40;96.30;;;;;;5022888;28;20032;-66
2021/07/12 09:03:52;;;;;;;;;;;24.50;99.60;;;;;;5049658;28;19928;-63
2021/07/12 09:06:59;;;;;;;;;;;25.50;98.30;;;;;;5048830;28;19936;-64
2021/07/12 09:09:57;;;;;;;;;;;27.00;95.30;;;;;;5052270;28;19998;-63
2021/07/12 09:12:46;;;;;;;;;;;30.40;92.90;;;;;;5049018;28;19925;-65
2021/07/12 09:15:35;;;;;;;;;;;29.20;90.30;;;;;;5045855;28;19933;-64
2021/07/12 09:18:23;;;;;;;;;;;27.30;93.30;;;;;;5051551;28;20446;-64
2021/07/12 09:21:17;;;;;;;;;;;26.50;95.00;;;;;;5055045;28;20420;-63
2021/07/12 09:24:19;;;;;;;;;;;26.50;96.00;;;;;;5055804;28;19924;-65
2021/07/12 09:27:09;;;;;;;;;;;26.60;94.90;;;;;;5054250;28;19930;-64
2021/07/12 09:29:58;;;;;;;;;;;26.40;95.20;;;;;;5051945;28;19925;-64
2021/07/12 09:32:47;;;;;;;;;;;25.40;98.60;;;;;;5055627;28;20242;-64
2021/07/12 09:35:37;;;;;;;;;;;25.20;99.90;;;;;;5054124;28;19924;-63
2021/07/12 09:38:30;;;;;;;;;;;25.20;99.90;;;;;;5042039;28;20360;-63
2021/07/12 09:41:29;;;;;;;;;;;25.20;99.10;;;;;;5054213;28;20011;-64
2021/07/12 09:44:18;;;;;;;;;;;24.00;99.60;;;;;;5051373;28;20063;-64
2021/07/12 09:47:12;;;;;;;;;;;23.60;99.90;;;;;;5048739;28;20390;-64
2021/07/12 09:50:01;;;;;;;;;;;23.50;99.90;;;;;;5043458;28;20367;-64
2021/07/12 09:52:54;;;;;;;;;;;24.10;99.90;;;;;;5056352;28;20019;-64
2021/07/12 09:55:45;;;;;;;;;;;24.40;99.90;;;;;;5048924;28;19924;-63
2021/07/12 09:58:34;;;;;;;;;;;24.60;99.30;;;;;;5055559;28;20441;-64
2021/07/12 10:01:24;;;;;;;;;;;24.10;99.90;;;;;;5058474;28;19933;-64
2021/07/12 10:04:14;;;;;;;;;;;24.20;99.90;;;;;;5055519;28;20010;-63
2021/07/12 10:07:03;;;;;;;;;;;23.60;99.90;;;;;;5057218;28;19925;-63
2021/07/12 10:09:55;;;;;;;;;;;23.70;99.90;;;;;;5045287;28;20388;-63
2021/07/12 10:12:46;;;;;;;;;;;24.20;99.90;;;;;;5054833;28;19925;-63
2021/07/12 10:15:35;;;;;;;;;;;23.90;99.90;;;;;;5047574;28;19936;-64
2021/07/12 10:18:26;;;;;;;;;;;24.40;99.90;;;;;;5025601;28;20381;-65
2021/07/12 10:21:15;;;;;;;;;;;24.70;98.60;;;;;;5033494;28;19929;-64
2021/07/12 10:24:03;;;;;;;;;;;25.30;98.10;;;;;;5029662;28;20409;-64
2021/07/12 10:26:56;;;;;;;;;;;26.00;96.60;;;;;;5031300;28;19960;-65
2021/07/12 10:29:46;;;;;;;;;;;26.50;97.30;;;;;;5035050;28;19925;-65
2021/07/12 10:32:36;;;;;;;;;;;26.40;97.00;;;;;;5023104;28;19926;-64
2021/07/12 10:35:52;;;;;;;;;;;29.80;92.90;;;;;;5031766;28;19929;-65
2021/07/12 10:38:43;;;;;;;;;;;30.60;89.50;;;;;;4990747;28;19933;-65
2021/07/12 10:41:32;;;;;;;;;;;28.80;87.40;;;;;;5034210;28;19941;-64
2021/07/12 10:44:49;;;;;;;;;;;27.90;90.80;;;;;;5034027;28;19925;-64
2021/07/12 10:47:43;;;;;;;;;;;27.10;92.90;;;;;;5030886;28;19964;-64
2021/07/12 10:50:41;;;;;;;;;;;26.40;93.80;;;;;;5023012;28;20028;-65
2021/07/12 10:53:34;;;;;;;;;;;25.60;96.90;;;;;;5032513;28;19936;-63
2021/07/12 10:56:23;;;;;;;;;;;25.00;97.00;;;;;;5018279;28;20016;-62
2021/07/12 10:59:28;;;;;;;;;;;24.40;98.10;;;;;;5014198;28;19930;-64
2021/07/12 11:02:29;;;;;;;;;;;24.10;98.40;;;;;;5025473;28;19925;-63
2021/07/12 11:05:20;;;;;;;;;;;24.90;97.80;;;;;;5020594;28;20032;-63
2021/07/12 11:08:08;;;;;;;;;;;25.00;96.80;;;;;;5033912;28;20067;-64
2021/07/12 11:10:59;;;;;;;;;;;24.80;97.60;;;;;;5025817;28;19952;-63
2021/07/12 11:13:52;;;;;;;;;;;24.70;99.30;;;;;;5016610;28;19936;-64
2021/07/12 11:16:42;;;;;;;;;;;24.10;98.30;;;;;;5040705;28;19925;-63
2021/07/12 11:19:31;;;;;;;;;;;23.90;99.10;;;;;;5051516;28;19925;-63
2021/07/12 11:22:25;;;;;;;;;;;25.50;99.30;;;;;;5053751;28;19924;-64
2021/07/12 11:25:15;;;;;;;;;;;25.50;96.50;;;;;;5054010;28;19935;-64
2021/07/12 11:28:11;;;;;;;;;;;25.00;95.80;;;;;;5045318;28;19929;-63
2021/07/12 11:30:59;;;;;;;;;;;25.20;96.60;;;;;;5030316;28;20018;-63
2021/07/12 11:33:49;;;;;;;;;;;25.30;94.90;;;;;;5062448;28;19939;-62
2021/07/12 11:36:38;;;;;;;;;;;25.80;95.70;;;;;;5052329;28;19932;-63
2021/07/12 11:39:29;;;;;;;;;;;24.90;95.30;;;;;;5052868;28;19925;-63
2021/07/12 11:42:22;;;;;;;;;;;24.40;96.90;;;;;;5052982;28;19925;-63
2021/07/12 11:45:11;;;;;;;;;;;24.40;97.10;;;;;;5052924;28;19928;-64
2021/07/12 11:48:00;;;;;;;;;;;24.50;97.30;;;;;;5052302;28;19925;-63
2021/07/12 11:50:49;;;;;;;;;;;24.80;96.90;;;;;;5053114;28;20383;-64
2021/07/12 11:53:37;;;;;;;;;;;25.10;97.60;;;;;;5051955;28;19931;-63
2021/07/12 11:56:30;;;;;;;;;;;25.00;96.40;;;;;;5050775;28;19925;-63
2021/07/12 12:02:37;;;;;;;;;;;24.80;98.20;;;;;;5035061;28;19932;-62
2021/07/12 12:05:27;;;;;;;;;;;25.00;97.20;;;;;;5040730;28;20034;-63
2021/07/12 12:08:16;;;;;;;;;;;24.70;97.30;;;;;;5037009;28;19932;-65
2021/07/12 12:11:05;;;;;;;;;;;24.30;98.10;;;;;;5029308;28;19932;-62
2021/07/12 12:13:57;;;;;;;;;;;24.40;98.00;;;;;;5029171;28;19926;-63
2021/07/12 12:16:46;;;;;;;;;;;24.90;97.70;;;;;;5032599;28;19925;-62
2021/07/12 12:19:35;;;;;;;;;;;24.60;97.00;;;;;;5052211;28;20071;-63
2021/07/12 12:22:37;;;;;;;;;;;24.50;97.60;;;;;;5033304;28;20353;-62
2021/07/12 12:25:27;;;;;;;;;;;24.40;97.70;;;;;;5032395;28;19932;-62
2021/07/12 12:28:23;;;;;;;;;;;24.00;97.70;;;;;;5032491;28;19933;-63
2021/07/12 12:34:33;;;;;;;;;;;24.50;97.80;;;;;;5021886;28;20344;-65
2021/07/12 12:37:21;;;;;;;;;;;24.70;97.30;;;;;;5012457;28;19940;-62
2021/07/12 12:40:19;;;;;;;;;;;25.00;97.20;;;;;;5014613;28;19932;-63
2021/07/12 12:43:34;;;;;;;;;;;24.90;96.70;;;;;;5021909;28;19925;-62
2021/07/12 12:46:24;;;;;;;;;;;24.80;96.20;;;;;;5025299;28;19937;-62
2021/07/12 12:49:14;;;;;;;;;;;24.70;97.00;;;;;;5031197;28;20385;-62
2021/07/12 12:52:06;;;;;;;;;;;24.40;96.30;;;;;;5029611;28;19937;-63
2021/07/12 12:55:08;;;;;;;;;;;24.50;96.80;;;;;;5032801;28;19947;-63
2021/07/12 12:58:06;;;;;;;;;;;24.60;96.40;;;;;;5032129;28;19944;-63
2021/07/12 13:00:55;;;;;;;;;;;24.70;96.90;;;;;;5024338;28;19944;-63
2021/07/12 13:03:47;;;;;;;;;;;24.80;96.70;;;;;;5031649;28;19933;-64
2021/07/12 13:06:41;;;;;;;;;;;24.90;96.70;;;;;;5030746;28;19932;-64
2021/07/12 13:09:31;;;;;;;;;;;25.00;97.00;;;;;;5030748;28;19936;-63
2021/07/12 13:12:20;;;;;;;;;;;24.80;95.90;;;;;;5030585;28;19952;-64
2021/07/12 13:15:10;;;;;;;;;;;24.70;97.00;;;;;;5038815;28;19929;-63
2021/07/12 13:18:03;;;;;;;;;;;24.70;96.50;;;;;;5030320;28;19972;-64
2021/07/12 13:20:53;;;;;;;;;;;24.90;96.10;;;;;;5027119;28;19932;-62
2021/07/12 13:23:46;;;;;;;;;;;25.00;95.90;;;;;;5021729;28;19925;-62
2021/07/12 13:26:34;;;;;;;;;;;25.00;95.60;;;;;;5024575;28;20036;-63
2021/07/12 13:29:23;;;;;;;;;;;25.00;94.50;;;;;;5032400;28;19929;-62
2021/07/12 13:32:11;;;;;;;;;;;25.10;95.40;;;;;;5021445;28;19925;-63
2021/07/12 13:35:01;;;;;;;;;;;25.30;96.30;;;;;;5033412;28;19957;-63
2021/07/12 13:37:52;;;;;;;;;;;25.30;96.00;;;;;;5018914;28;19929;-63
2021/07/12 13:40:41;;;;;;;;;;;25.50;94.80;;;;;;5022538;28;19933;-63
2021/07/12 13:43:30;;;;;;;;;;;25.80;94.50;;;;;;5022710;28;20270;-62
2021/07/12 13:46:43;;;;;;;;;;;26.10;94.60;;;;;;5018634;28;19925;-63
2021/07/12 13:49:32;;;;;;;;;;;26.00;94.40;;;;;;5033476;28;19964;-64
2021/07/12 13:52:22;;;;;;;;;;;25.60;95.40;;;;;;5030915;28;19929;-64
2021/07/12 13:55:13;;;;;;;;;;;25.60;95.10;;;;;;5032759;28;19925;-62
2021/07/12 13:58:03;;;;;;;;;;;25.80;95.70;;;;;;5028881;28;19925;-62
2021/07/12 14:01:17;;;;;;;;;;;25.80;96.10;;;;;;5030850;28;19925;-62
2021/07/12 14:04:06;;;;;;;;;;;25.90;95.50;;;;;;5008085;28;19933;-62
2021/07/12 14:06:54;;;;;;;;;;;26.00;95.40;;;;;;5003542;28;19929;-62
2021/07/12 14:09:43;;;;;;;;;;;25.80;94.40;;;;;;5010360;28;20072;-62
2021/07/12 14:12:33;;;;;;;;;;;25.50;94.70;;;;;;5023057;28;19933;-63
2021/07/12 14:15:23;;;;;;;;;;;25.40;94.70;;;;;;5010783;28;19976;-62
2021/07/12 14:18:32;;;;;;;;;;;25.10;94.50;;;;;;5041218;28;20407;-63
2021/07/12 14:21:21;;;;;;;;;;;25.20;95.80;;;;;;5043975;28;19932;-64
2021/07/12 14:24:09;;;;;;;;;;;25.40;95.30;;;;;;5037639;28;20280;-64
2021/07/12 14:26:58;;;;;;;;;;;25.30;95.20;;;;;;5047440;28;19929;-63
2021/07/12 14:29:50;;;;;;;;;;;25.40;94.90;;;;;;5043808;28;20016;-64
2021/07/12 14:32:39;;;;;;;;;;;25.40;94.80;;;;;;5037553;28;19933;-64
2021/07/12 14:35:28;;;;;;;;;;;25.70;95.80;;;;;;5054153;28;20373;-64
2021/07/12 14:38:16;;;;;;;;;;;25.90;93.80;;;;;;5055559;28;19932;-63
2021/07/12 14:41:05;;;;;;;;;;;26.10;94.00;;;;;;5054144;28;19935;-63
2021/07/12 14:43:54;;;;;;;;;;;26.10;93.40;;;;;;5054117;28;19935;-63
2021/07/12 14:46:47;;;;;;;;;;;25.90;92.60;;;;;;5018275;28;19933;-64
2021/07/12 14:49:37;;;;;;;;;;;25.60;93.20;;;;;;5011474;28;20293;-63
2021/07/12 14:52:26;;;;;;;;;;;25.70;92.60;;;;;;5014417;28;19936;-63
2021/07/12 14:55:15;;;;;;;;;;;25.60;92.70;;;;;;5012962;28;19925;-63
2021/07/12 14:58:04;;;;;;;;;;;25.50;92.80;;;;;;5013174;28;19926;-64
2021/07/12 15:00:52;;;;;;;;;;;25.50;93.70;;;;;;5007628;28;19968;-63
2021/07/12 15:03:43;;;;;;;;;;;25.50;93.60;;;;;;5013754;28;20011;-65
2021/07/12 15:06:31;;;;;;;;;;;25.50;93.40;;;;;;5009841;28;19957;-63
2021/07/12 15:09:19;;;;;;;;;;;25.40;93.90;;;;;;5013224;28;19932;-64
2021/07/12 15:12:09;;;;;;;;;;;25.50;94.10;;;;;;5014143;28;19926;-63
2021/07/12 15:14:57;;;;;;;;;;;25.50;93.60;;;;;;5014150;28;19925;-63
2021/07/12 15:17:46;;;;;;;;;;;25.60;93.30;;;;;;5032428;28;20341;-63
2021/07/12 15:20:37;;;;;;;;;;;25.50;94.30;;;;;;5029385;28;20011;-64
2021/07/12 15:23:26;;;;;;;;;;;25.40;94.00;;;;;;5026376;28;19995;-64
2021/07/12 15:26:14;;;;;;;;;;;25.60;94.20;;;;;;5030120;28;19925;-64
2021/07/12 15:29:03;;;;;;;;;;;25.40;94.20;;;;;;5025873;28;20072;-64
2021/07/12 15:35:05;;;;;;;;;;;25.80;94.20;;;;;;5012907;28;19929;-63
2021/07/12 15:37:55;;;;;;;;;;;25.60;93.70;;;;;;5014413;28;19930;-64
2021/07/12 15:40:43;;;;;;;;;;;25.70;94.70;;;;;;5012101;28;20437;-65
2021/07/12 15:43:32;;;;;;;;;;;25.60;93.70;;;;;;5015867;28;19926;-64
2021/07/12 15:46:20;;;;;;;;;;;25.50;93.80;;;;;;5002724;28;19925;-66
2021/07/12 15:49:09;;;;;;;;;;;25.60;93.80;;;;;;5002969;28;19925;-63
2021/07/12 15:51:58;;;;;;;;;;;25.60;94.10;;;;;;5012671;28;19933;-64
2021/07/12 15:54:48;;;;;;;;;;;25.60;94.20;;;;;;4999559;28;19930;-63
2021/07/12 15:57:57;;;;;;;;;;;25.40;93.70;;;;;;5007853;28;20007;-63
2021/07/12 16:00:46;;;;;;;;;;;25.60;94.40;;;;;;5003921;28;20321;-62
2021/07/12 16:03:35;;;;;;;;;;;25.60;94.00;;;;;;5010332;28;19926;-61
2021/07/12 16:06:24;;;;;;;;;;;25.40;94.60;;;;;;5017437;28;19929;-63
2021/07/12 16:09:12;;;;;;;;;;;25.20;94.90;;;;;;5014461;28;19926;-64
2021/07/12 16:12:02;;;;;;;;;;;25.10;94.70;;;;;;5011825;28;19925;-61
2021/07/12 16:14:51;;;;;;;;;;;25.20;96.10;;;;;;5007669;28;19925;-63
2021/07/12 16:17:40;;;;;;;;;;;25.40;94.70;;;;;;5009811;28;20412;-63
2021/07/12 16:20:31;;;;;;;;;;;25.30;93.90;;;;;;5009483;28;19925;-63
2021/07/12 16:23:20;;;;;;;;;;;25.30;94.30;;;;;;5013668;28;19925;-63
2021/07/12 16:26:09;;;;;;;;;;;25.30;93.70;;;;;;5009086;28;20361;-62
2021/07/12 16:28:59;;;;;;;;;;;25.40;93.90;;;;;;5011498;28;19926;-63
2021/07/12 16:31:48;;;;;;;;;;;25.50;93.70;;;;;;5002351;28;19937;-63
2021/07/12 16:34:41;;;;;;;;;;;25.40;93.60;;;;;;5004739;28;20409;-63
2021/07/12 16:37:30;;;;;;;;;;;25.40;93.50;;;;;;5014151;28;19952;-65
2021/07/12 16:40:19;;;;;;;;;;;25.40;93.70;;;;;;5012547;28;19965;-63
2021/07/12 16:43:07;;;;;;;;;;;25.40;93.80;;;;;;5009443;28;20783;-62
2021/07/12 16:45:57;;;;;;;;;;;25.30;93.80;;;;;;5006922;28;19925;-63
2021/07/12 16:48:46;;;;;;;;;;;25.30;94.00;;;;;;5025813;28;19933;-64
2021/07/12 16:51:35;;;;;;;;;;;25.30;94.70;;;;;;5000656;28;19926;-63
2021/07/12 16:54:24;;;;;;;;;;;25.20;94.20;;;;;;5009340;28;19956;-62